Time;durP1;ratioP1;P1;durP2;ratioP2;P2;SDS_P1;SDS_P2;PMS_P1;PMS_P2;Temp;Humidity;BMP_temperature;BMP_pressure;BME280_temperature;BME280_humidity;BME280_pressure;Samples;Min_cycle;Max_cycle;Signal;HPM_P1;HPM_P2
2022/06/23 00:01:16;;;;;;;1.10;1.10;;;;;;;;;;5070675;28;20672;-77
2022/06/23 00:03:48;;;;;;;1.08;1.02;;;;;;;;;;5071091;28;20247;-77
2022/06/23 00:06:34;;;;;;;1.00;1.00;;;;;;;;;;5058005;28;20221;-78
2022/06/23 00:09:02;;;;;;;2.88;1.25;;;;;;;;;;5052593;28;20212;-78
2022/06/23 00:11:29;;;;;;;1.00;1.00;;;;;;;;;;5052316;28;20285;-77
2022/06/23 00:14:13;;;;;;;1.30;1.20;;;;;;;;;;5052017;28;20459;-78
2022/06/23 00:16:41;;;;;;;1.30;1.20;;;;;;;;;;5052775;28;20211;-79
2022/06/23 00:19:13;;;;;;;1.80;1.45;;;;;;;;;;5055990;28;20201;-79
2022/06/23 00:21:43;;;;;;;1.20;1.15;;;;;;;;;;5055518;28;20240;-79
2022/06/23 00:24:16;;;;;;;1.20;1.08;;;;;;;;;;5056242;28;20308;-78
2022/06/23 00:26:44;;;;;;;1.20;1.10;;;;;;;;;;5055706;28;20228;-79
2022/06/23 00:29:15;;;;;;;2.38;1.45;;;;;;;;;;5055767;28;20258;-78
2022/06/23 00:31:45;;;;;;;1.23;1.17;;;;;;;;;;5055497;28;20284;-77
2022/06/23 00:34:22;;;;;;;1.73;1.63;;;;;;;;;;5055594;28;20229;-78
2022/06/23 00:36:51;;;;;;;1.00;1.00;;;;;;;;;;5074202;28;20287;-78
2022/06/23 00:39:28;;;;;;;1.15;1.05;;;;;;;;;;5075575;28;20278;-77
2022/06/23 00:41:56;;;;;;;1.33;1.20;;;;;;;;;;5075343;28;20296;-79
2022/06/23 00:44:30;;;;;;;1.17;1.10;;;;;;;;;;5075436;28;20303;-78
2022/06/23 00:47:02;;;;;;;1.30;1.20;;;;;;;;;;5075395;28;20228;-78
2022/06/23 00:49:37;;;;;;;1.10;1.00;;;;;;;;;;5075504;28;20296;-79
2022/06/23 00:52:16;;;;;;;1.35;1.30;;;;;;;;;;5075084;28;20284;-79
2022/06/23 00:54:47;;;;;;;1.95;1.13;;;;;;;;;;5075444;28;20356;-78
2022/06/23 00:57:22;;;;;;;2.33;1.20;;;;;;;;;;5075855;28;20200;-78
2022/06/23 00:59:53;;;;;;;1.40;1.30;;;;;;;;;;5073906;28;20204;-78
2022/06/23 01:02:24;;;;;;;1.48;1.38;;;;;;;;;;5078698;28;20272;-78
2022/06/23 01:04:58;;;;;;;4.00;1.13;;;;;;;;;;5077256;28;20620;-77
2022/06/23 01:07:37;;;;;;;1.10;1.10;;;;;;;;;;5077425;28;20252;-78
2022/06/23 01:10:12;;;;;;;1.48;1.25;;;;;;;;;;5075705;28;20201;-78
2022/06/23 01:12:44;;;;;;;1.20;1.10;;;;;;;;;;5075624;28;20291;-78
2022/06/23 01:15:25;;;;;;;4.72;1.80;;;;;;;;;;5075287;28;20747;-78
2022/06/23 01:17:57;;;;;;;2.05;1.20;;;;;;;;;;5075897;28;20672;-76
2022/06/23 01:20:35;;;;;;;1.38;1.27;;;;;;;;;;5075153;28;20290;-76
2022/06/23 01:23:17;;;;;;;1.58;1.30;;;;;;;;;;5075149;28;20554;-77
2022/06/23 01:26:22;;;;;;;1.27;1.23;;;;;;;;;;5075346;28;20200;-77
2022/06/23 01:28:52;;;;;;;1.10;1.10;;;;;;;;;;5074292;28;20288;-77
2022/06/23 01:31:23;;;;;;;1.83;1.30;;;;;;;;;;5074572;28;20209;-76
2022/06/23 01:33:55;;;;;;;1.45;1.35;;;;;;;;;;5074353;28;20307;-77
2022/06/23 01:36:30;;;;;;;2.38;1.33;;;;;;;;;;5074675;28;20205;-77
2022/06/23 01:39:04;;;;;;;2.17;1.30;;;;;;;;;;5075006;28;20295;-77
2022/06/23 01:41:37;;;;;;;1.30;1.20;;;;;;;;;;5073931;28;20291;-77
2022/06/23 01:44:15;;;;;;;1.60;1.50;;;;;;;;;;5078176;28;20225;-78
2022/06/23 01:46:46;;;;;;;1.35;1.20;;;;;;;;;;5077305;28;20308;-77
2022/06/23 01:49:17;;;;;;;1.45;1.15;;;;;;;;;;5075331;28;20207;-77
2022/06/23 01:51:50;;;;;;;1.33;1.23;;;;;;;;;;5073577;28;20205;-76
2022/06/23 01:54:26;;;;;;;1.10;1.00;;;;;;;;;;5074941;28;20278;-77
2022/06/23 01:57:01;;;;;;;1.35;1.23;;;;;;;;;;5074269;28;20622;-77
2022/06/23 01:59:52;;;;;;;1.13;1.13;;;;;;;;;;5074063;28;20211;-77
2022/06/23 02:02:29;;;;;;;1.20;1.20;;;;;;;;;;5074171;28;20207;-77
2022/06/23 02:05:02;;;;;;;2.42;1.30;;;;;;;;;;5074678;28;20315;-77
2022/06/23 02:07:35;;;;;;;1.15;1.13;;;;;;;;;;5074252;28;20315;-76
2022/06/23 02:10:10;;;;;;;1.35;1.25;;;;;;;;;;5073778;28;20288;-77
2022/06/23 02:12:49;;;;;;;0.95;0.93;;;;;;;;;;5073107;28;20756;-77
2022/06/23 02:15:23;;;;;;;1.58;1.48;;;;;;;;;;5073741;28;20308;-77
2022/06/23 02:17:57;;;;;;;1.10;1.10;;;;;;;;;;5074122;28;20192;-77
2022/06/23 02:20:50;;;;;;;1.52;1.20;;;;;;;;;;5073935;28;20291;-77
2022/06/23 02:23:33;;;;;;;1.15;1.15;;;;;;;;;;5073058;28;20284;-77
2022/06/23 02:26:06;;;;;;;0.93;0.93;;;;;;;;;;5073128;28;20284;-77
2022/06/23 02:28:37;;;;;;;1.10;1.10;;;;;;;;;;5073294;28;20227;-76
2022/06/23 02:31:17;;;;;;;1.40;1.30;;;;;;;;;;5073381;28;20201;-77
2022/06/23 02:33:50;;;;;;;1.42;1.33;;;;;;;;;;5072647;28;20593;-76
2022/06/23 02:36:33;;;;;;;1.05;1.05;;;;;;;;;;5072982;28;20197;-75
2022/06/23 02:39:04;;;;;;;1.00;1.00;;;;;;;;;;5073301;28;20207;-77
2022/06/23 02:41:39;;;;;;;0.80;0.80;;;;;;;;;;5072420;28;20204;-76
2022/06/23 02:44:26;;;;;;;1.08;1.08;;;;;;;;;;5072751;28;20712;-77
2022/06/23 02:47:17;;;;;;;1.23;1.20;;;;;;;;;;5073143;28;20221;-77
2022/06/23 02:50:07;;;;;;;1.85;1.08;;;;;;;;;;5072985;28;20589;-77
2022/06/23 02:52:50;;;;;;;1.27;1.10;;;;;;;;;;5072464;28;20296;-75
2022/06/23 02:55:44;;;;;;;1.17;1.10;;;;;;;;;;5072661;28;20303;-77
2022/06/23 02:58:16;;;;;;;1.20;1.10;;;;;;;;;;5072451;28;20205;-77
2022/06/23 03:00:48;;;;;;;1.30;1.25;;;;;;;;;;5071208;28;20596;-77
2022/06/23 03:03:23;;;;;;;1.38;1.10;;;;;;;;;;5072237;28;20207;-77
2022/06/23 03:05:56;;;;;;;1.33;1.00;;;;;;;;;;5072606;28;20303;-76
2022/06/23 03:08:32;;;;;;;1.42;1.33;;;;;;;;;;5072579;28;20793;-77
2022/06/23 03:11:02;;;;;;;0.93;0.90;;;;;;;;;;5072629;28;20228;-76
2022/06/23 03:13:41;;;;;;;1.23;1.10;;;;;;;;;;5071748;28;20304;-77
2022/06/23 03:16:15;;;;;;;1.27;1.10;;;;;;;;;;5072548;28;20288;-77
2022/06/23 03:18:55;;;;;;;1.00;1.00;;;;;;;;;;5072381;28;20276;-76
2022/06/23 03:21:27;;;;;;;1.00;1.00;;;;;;;;;;5072280;28;20695;-77
2022/06/23 03:24:02;;;;;;;1.17;1.10;;;;;;;;;;5071587;28;20231;-77
2022/06/23 03:26:36;;;;;;;1.08;1.05;;;;;;;;;;5071806;28;20210;-76
2022/06/23 03:29:15;;;;;;;0.90;0.90;;;;;;;;;;5072359;28;20319;-77
2022/06/23 03:31:47;;;;;;;1.30;1.17;;;;;;;;;;5071530;28;20201;-76
2022/06/23 03:34:22;;;;;;;1.13;1.13;;;;;;;;;;5072236;28;20252;-77
2022/06/23 03:36:54;;;;;;;0.85;0.85;;;;;;;;;;5072278;28;20231;-77
2022/06/23 03:42:23;;;;;;;1.00;1.00;;;;;;;;;;5071615;28;20266;-76
2022/06/23 03:44:55;;;;;;;1.70;1.30;;;;;;;;;;5072229;28;20274;-76
2022/06/23 03:47:29;;;;;;;1.50;1.40;;;;;;;;;;5070284;28;20197;-77
2022/06/23 03:50:02;;;;;;;1.17;1.17;;;;;;;;;;5072418;28;20280;-76
2022/06/23 03:52:37;;;;;;;1.00;1.00;;;;;;;;;;5069955;28;20644;-76
2022/06/23 03:55:16;;;;;;;1.27;1.17;;;;;;;;;;5071836;28;20223;-76
2022/06/23 03:57:48;;;;;;;0.90;0.90;;;;;;;;;;5074883;28;20231;-76
2022/06/23 04:00:26;;;;;;;1.00;0.90;;;;;;;;;;5070232;28;20197;-77
2022/06/23 04:03:09;;;;;;;1.23;1.13;;;;;;;;;;5071335;28;20723;-76
2022/06/23 04:06:22;;;;;;;1.10;1.10;;;;;;;;;;5071882;28;20219;-78
2022/06/23 04:09:11;;;;;;;0.80;0.80;;;;;;;;;;5071576;28;20216;-77
2022/06/23 04:11:57;;;;;;;0.80;0.80;;;;;;;;;;5071194;28;20720;-77
2022/06/23 04:14:49;;;;;;;0.90;0.90;;;;;;;;;;5071369;28;20304;-77
2022/06/23 04:17:23;;;;;;;1.00;0.80;;;;;;;;;;5071369;28;20201;-77
2022/06/23 04:19:57;;;;;;;0.70;0.70;;;;;;;;;;5071630;28;20767;-77
2022/06/23 04:22:31;;;;;;;1.08;1.08;;;;;;;;;;5070976;28;20744;-76
2022/06/23 04:25:02;;;;;;;1.10;1.10;;;;;;;;;;5071579;28;20312;-77
2022/06/23 04:27:37;;;;;;;0.90;0.90;;;;;;;;;;5071541;28;20695;-77
2022/06/23 04:30:07;;;;;;;0.70;0.70;;;;;;;;;;5071953;28;20637;-77
2022/06/23 04:32:37;;;;;;;0.70;0.70;;;;;;;;;;5070822;28;20657;-75
2022/06/23 04:35:15;;;;;;;0.77;0.77;;;;;;;;;;5071710;28;20255;-75
2022/06/23 04:37:55;;;;;;;0.80;0.80;;;;;;;;;;5071992;28;20201;-77
2022/06/23 04:40:28;;;;;;;0.60;0.60;;;;;;;;;;5071936;28;20239;-76
2022/06/23 04:43:00;;;;;;;0.95;0.95;;;;;;;;;;5071012;28;20284;-76
2022/06/23 04:45:40;;;;;;;1.63;0.98;;;;;;;;;;5075708;28;20245;-75
2022/06/23 04:48:16;;;;;;;1.05;1.05;;;;;;;;;;5079680;28;20220;-77
2022/06/23 04:50:55;;;;;;;0.70;0.70;;;;;;;;;;5081485;28;20201;-77
2022/06/23 04:53:42;;;;;;;0.80;0.80;;;;;;;;;;5076179;28;20200;-77
2022/06/23 04:56:23;;;;;;;1.80;1.17;;;;;;;;;;5072392;28;20201;-77
2022/06/23 04:58:54;;;;;;;1.00;1.00;;;;;;;;;;5071712;28;20737;-77
2022/06/23 05:01:25;;;;;;;1.00;1.00;;;;;;;;;;5071650;28;20693;-78
2022/06/23 05:03:56;;;;;;;1.00;1.00;;;;;;;;;;5073425;28;20305;-77
2022/06/23 05:06:36;;;;;;;1.52;1.35;;;;;;;;;;5075233;28;20233;-77
2022/06/23 05:09:11;;;;;;;1.92;1.20;;;;;;;;;;5075419;28;20245;-76
2022/06/23 05:11:46;;;;;;;1.00;1.00;;;;;;;;;;5074884;28;20200;-77
2022/06/23 05:14:23;;;;;;;1.27;1.17;;;;;;;;;;5075147;28;20599;-76
2022/06/23 05:16:54;;;;;;;1.48;1.20;;;;;;;;;;5075658;28;20291;-76
2022/06/23 05:19:28;;;;;;;1.40;1.30;;;;;;;;;;5075679;28;20219;-77
2022/06/23 05:21:59;;;;;;;1.20;1.10;;;;;;;;;;5074764;28;20676;-75
2022/06/23 05:24:30;;;;;;;1.58;1.48;;;;;;;;;;5074952;28;20312;-77
2022/06/23 05:27:00;;;;;;;1.92;1.70;;;;;;;;;;5074411;28;20292;-77
2022/06/23 05:29:34;;;;;;;1.92;1.70;;;;;;;;;;5075466;28;20256;-76
2022/06/23 05:32:06;;;;;;;2.97;1.20;;;;;;;;;;5074044;28;20201;-78
2022/06/23 05:34:37;;;;;;;1.77;1.15;;;;;;;;;;5075375;28;20675;-76
2022/06/23 05:37:17;;;;;;;1.17;1.10;;;;;;;;;;5054633;28;20642;-77
2022/06/23 05:39:49;;;;;;;1.63;1.52;;;;;;;;;;5054905;28;20228;-77
2022/06/23 05:42:21;;;;;;;1.33;1.33;;;;;;;;;;5052283;28;20297;-80
2022/06/23 05:44:53;;;;;;;1.50;1.40;;;;;;;;;;5053860;28;20728;-79
2022/06/23 05:47:21;;;;;;;1.67;1.58;;;;;;;;;;5054080;28;20322;-80
2022/06/23 05:49:54;;;;;;;1.25;1.15;;;;;;;;;;5053732;28;20308;-80
2022/06/23 05:52:26;;;;;;;1.95;1.40;;;;;;;;;;5053751;28;20208;-80
2022/06/23 05:55:00;;;;;;;1.08;1.08;;;;;;;;;;5054475;28;20320;-79
2022/06/23 05:57:34;;;;;;;1.55;1.45;;;;;;;;;;5053819;28;20692;-79
2022/06/23 06:00:15;;;;;;;2.75;1.40;;;;;;;;;;5053846;28;20247;-79
2022/06/23 06:02:48;;;;;;;1.73;1.23;;;;;;;;;;5053961;28;20202;-80
2022/06/23 06:05:26;;;;;;;1.20;1.20;;;;;;;;;;5060036;28;20256;-81
2022/06/23 06:07:54;;;;;;;1.30;1.20;;;;;;;;;;5076621;28;20689;-79
2022/06/23 06:10:29;;;;;;;1.20;1.10;;;;;;;;;;5077007;28;20256;-81
2022/06/23 06:12:57;;;;;;;2.15;1.85;;;;;;;;;;5074397;28;20235;-81
2022/06/23 06:15:28;;;;;;;1.50;1.42;;;;;;;;;;5074251;28;20256;-79
2022/06/23 06:18:03;;;;;;;1.48;1.38;;;;;;;;;;5074807;28;20197;-81
2022/06/23 06:20:31;;;;;;;1.73;1.60;;;;;;;;;;5075098;28;20218;-80
2022/06/23 06:23:03;;;;;;;1.42;1.33;;;;;;;;;;5074148;28;20736;-81
2022/06/23 06:25:36;;;;;;;2.05;1.95;;;;;;;;;;5074028;28;20252;-81
2022/06/23 06:28:16;;;;;;;1.50;1.40;;;;;;;;;;5074615;28;20647;-81
2022/06/23 06:30:51;;;;;;;1.38;1.30;;;;;;;;;;5074032;28;20228;-81
2022/06/23 06:33:31;;;;;;;1.70;1.40;;;;;;;;;;5071372;28;20723;-80
2022/06/23 06:35:59;;;;;;;1.77;1.13;;;;;;;;;;5073967;28;20638;-80
2022/06/23 06:38:28;;;;;;;2.80;2.60;;;;;;;;;;5073761;28;20299;-81
2022/06/23 06:40:58;;;;;;;1.55;1.45;;;;;;;;;;5073371;28;20233;-79
2022/06/23 06:43:30;;;;;;;1.40;1.30;;;;;;;;;;5072899;28;20240;-80
2022/06/23 06:45:59;;;;;;;1.50;1.40;;;;;;;;;;5073918;28;20300;-80
2022/06/23 06:48:30;;;;;;;1.40;1.30;;;;;;;;;;5073508;28;20250;-79
2022/06/23 06:51:02;;;;;;;3.50;1.73;;;;;;;;;;5073354;28;20256;-81
2022/06/23 06:53:34;;;;;;;1.52;1.42;;;;;;;;;;5072377;28;20252;-81
2022/06/23 06:56:08;;;;;;;2.30;2.10;;;;;;;;;;5073286;28;20232;-81
2022/06/23 06:58:42;;;;;;;2.47;1.52;;;;;;;;;;5073119;28;20239;-79
2022/06/23 07:01:15;;;;;;;3.17;2.22;;;;;;;;;;5071922;28;20740;-80
2022/06/23 07:03:46;;;;;;;1.83;1.40;;;;;;;;;;5072389;28;20217;-79
2022/06/23 07:06:19;;;;;;;1.65;1.55;;;;;;;;;;5072661;28;20683;-79
2022/06/23 07:08:52;;;;;;;1.83;1.48;;;;;;;;;;5072936;28;20197;-80
2022/06/23 07:11:25;;;;;;;1.42;1.33;;;;;;;;;;5072889;28;20217;-80
2022/06/23 07:13:57;;;;;;;1.70;1.27;;;;;;;;;;5072727;28;20315;-79
2022/06/23 07:16:31;;;;;;;1.75;1.65;;;;;;;;;;5072848;28;20583;-80
2022/06/23 07:19:02;;;;;;;1.35;1.25;;;;;;;;;;5072872;28;20748;-80
2022/06/23 07:21:34;;;;;;;1.60;1.50;;;;;;;;;;5073469;28;20239;-80
2022/06/23 07:24:11;;;;;;;1.88;1.77;;;;;;;;;;5072521;28;20253;-81
2022/06/23 07:26:47;;;;;;;1.25;1.15;;;;;;;;;;5073114;28;20204;-80
2022/06/23 07:29:26;;;;;;;1.38;1.27;;;;;;;;;;5073340;28;20624;-79
2022/06/23 07:32:07;;;;;;;1.50;1.40;;;;;;;;;;5073329;28;20291;-80
2022/06/23 07:34:47;;;;;;;1.50;1.08;;;;;;;;;;5073606;28;20235;-81
2022/06/23 07:37:22;;;;;;;1.23;1.13;;;;;;;;;;5052817;28;20201;-80
2022/06/23 07:40:08;;;;;;;1.65;1.55;;;;;;;;;;5052906;28;20197;-80
2022/06/23 07:42:53;;;;;;;1.08;1.00;;;;;;;;;;5050893;28;20296;-80
2022/06/23 07:45:25;;;;;;;1.33;1.25;;;;;;;;;;5053088;28;20260;-80
2022/06/23 07:47:53;;;;;;;1.20;1.10;;;;;;;;;;5053084;28;20201;-79
2022/06/23 07:50:20;;;;;;;1.10;1.10;;;;;;;;;;5053279;28;20253;-81
2022/06/23 07:52:48;;;;;;;1.63;1.52;;;;;;;;;;5051860;28;20241;-82
2022/06/23 07:55:22;;;;;;;1.48;1.42;;;;;;;;;;5053083;28;20257;-81
2022/06/23 07:57:51;;;;;;;1.60;1.50;;;;;;;;;;5052497;28;20594;-80
2022/06/23 08:00:19;;;;;;;1.42;1.30;;;;;;;;;;5051375;28;20225;-80
2022/06/23 08:02:53;;;;;;;1.30;1.20;;;;;;;;;;5051676;28;20210;-81
2022/06/23 08:05:25;;;;;;;1.17;1.17;;;;;;;;;;5057925;28;20267;-81
2022/06/23 08:07:52;;;;;;;1.15;1.05;;;;;;;;;;5072173;28;20221;-81
2022/06/23 08:10:23;;;;;;;1.10;1.10;;;;;;;;;;5071735;28;20221;-80
2022/06/23 08:12:56;;;;;;;3.17;1.30;;;;;;;;;;5071648;28;20247;-82
2022/06/23 08:18:24;;;;;;;1.70;1.30;;;;;;;;;;5071932;28;20196;-81
2022/06/23 08:20:56;;;;;;;1.80;1.50;;;;;;;;;;5075081;28;20197;-80
2022/06/23 08:23:25;;;;;;;2.22;1.48;;;;;;;;;;5078335;28;20677;-81
2022/06/23 08:25:53;;;;;;;1.25;1.25;;;;;;;;;;5073643;28;20239;-80
2022/06/23 08:28:22;;;;;;;1.48;1.38;;;;;;;;;;5073708;28;20591;-80
2022/06/23 08:30:50;;;;;;;0.88;0.88;;;;;;;;;;5073402;28;20252;-82
2022/06/23 08:33:18;;;;;;;0.90;0.90;;;;;;;;;;5072560;28;20237;-82
2022/06/23 08:35:48;;;;;;;1.48;1.17;;;;;;;;;;5072764;28;20221;-82
2022/06/23 08:38:21;;;;;;;1.58;1.42;;;;;;;;;;5074283;28;20708;-81
2022/06/23 08:41:06;;;;;;;2.15;1.50;;;;;;;;;;5075561;28;20287;-82
2022/06/23 08:43:42;;;;;;;1.70;1.60;;;;;;;;;;5077557;28;20227;-82
2022/06/23 08:46:19;;;;;;;8.82;1.88;;;;;;;;;;5077474;28;20231;-81
2022/06/23 08:48:53;;;;;;;1.63;1.52;;;;;;;;;;5076938;28;20201;-82
2022/06/23 08:51:26;;;;;;;1.42;1.33;;;;;;;;;;5078804;28;20224;-80
2022/06/23 08:54:06;;;;;;;1.35;1.25;;;;;;;;;;5078576;28;20245;-82
2022/06/23 08:56:40;;;;;;;1.27;1.13;;;;;;;;;;5078952;28;20243;-83
2022/06/23 08:59:19;;;;;;;1.48;1.40;;;;;;;;;;5077466;28;20247;-83
2022/06/23 09:01:52;;;;;;;1.60;1.50;;;;;;;;;;5075754;28;20206;-80
2022/06/23 09:04:33;;;;;;;1.33;1.23;;;;;;;;;;5076764;28;20224;-82
2022/06/23 09:07:11;;;;;;;1.98;1.27;;;;;;;;;;5076470;28;20214;-81
2022/06/23 09:09:44;;;;;;;1.33;1.23;;;;;;;;;;5076904;28;20200;-82
2022/06/23 09:12:19;;;;;;;1.20;1.20;;;;;;;;;;5076066;28;20244;-82
2022/06/23 09:15:31;;;;;;;1.13;1.02;;;;;;;;;;5076557;28;20644;-83
2022/06/23 09:18:21;;;;;;;1.20;1.20;;;;;;;;;;5058307;28;20706;-82
2022/06/23 09:21:15;;;;;;;1.00;1.00;;;;;;;;;;5076660;28;20468;-83
2022/06/23 09:24:09;;;;;;;1.30;1.30;;;;;;;;;;5075987;28;20220;-81
2022/06/23 09:26:41;;;;;;;2.22;1.85;;;;;;;;;;5076107;28;20207;-81
2022/06/23 09:29:17;;;;;;;1.48;1.38;;;;;;;;;;5075593;28;20211;-83
2022/06/23 09:31:58;;;;;;;1.25;1.25;;;;;;;;;;5074372;28;20783;-83
2022/06/23 09:34:52;;;;;;;0.88;0.88;;;;;;;;;;5075006;28;20256;-81
2022/06/23 09:38:10;;;;;;;1.60;1.50;;;;;;;;;;5055270;28;20703;-82
2022/06/23 09:40:50;;;;;;;1.17;1.17;;;;;;;;;;4998640;28;20292;-82
2022/06/23 09:44:02;;;;;;;1.40;1.30;;;;;;;;;;5053871;28;20698;-80
2022/06/23 09:47:07;;;;;;;2.00;1.80;;;;;;;;;;5054685;28;20640;-81
2022/06/23 09:49:49;;;;;;;2.20;1.55;;;;;;;;;;5029942;28;20232;-82
2022/06/23 09:52:59;;;;;;;1.40;1.40;;;;;;;;;;5054461;28;20260;-83
2022/06/23 09:55:42;;;;;;;1.25;1.15;;;;;;;;;;5054527;28;20308;-83
2022/06/23 09:58:53;;;;;;;1.20;1.20;;;;;;;;;;5054620;28;20254;-82
2022/06/23 10:01:37;;;;;;;1.45;1.35;;;;;;;;;;5060444;28;20199;-82
2022/06/23 10:04:35;;;;;;;1.45;1.35;;;;;;;;;;5057710;28;20260;-81
2022/06/23 10:07:31;;;;;;;1.60;1.50;;;;;;;;;;5050102;28;20221;-82
2022/06/23 10:10:13;;;;;;;1.50;1.40;;;;;;;;;;5057777;28;20625;-83
2022/06/23 10:13:12;;;;;;;1.70;1.63;;;;;;;;;;5057597;28;20253;-84
2022/06/23 10:15:53;;;;;;;1.20;1.17;;;;;;;;;;5058523;28;20614;-81
2022/06/23 10:18:39;;;;;;;2.17;1.50;;;;;;;;;;5055903;28;20239;-83
2022/06/23 10:21:38;;;;;;;1.20;1.20;;;;;;;;;;5058134;28;20280;-83
2022/06/23 10:24:34;;;;;;;1.10;1.10;;;;;;;;;;5056557;28;20251;-82
2022/06/23 10:27:15;;;;;;;1.15;1.15;;;;;;;;;;5053728;28;20205;-84
2022/06/23 10:29:59;;;;;;;1.45;1.35;;;;;;;;;;5056287;28;20231;-81
2022/06/23 10:33:03;;;;;;;1.60;1.50;;;;;;;;;;5054642;28;20311;-83
2022/06/23 10:35:59;;;;;;;1.55;1.45;;;;;;;;;;5062836;28;20270;-79
2022/06/23 10:38:50;;;;;;;1.33;1.23;;;;;;;;;;5074433;28;20239;-82
2022/06/23 10:41:37;;;;;;;1.50;1.40;;;;;;;;;;5074779;28;20228;-81
2022/06/23 10:44:39;;;;;;;1.50;1.40;;;;;;;;;;5074545;28;20845;-81
2022/06/23 10:47:26;;;;;;;1.23;1.23;;;;;;;;;;5081083;28;20228;-82
2022/06/23 10:50:11;;;;;;;1.20;1.10;;;;;;;;;;5076395;28;20235;-82
2022/06/23 10:53:06;;;;;;;1.40;1.40;;;;;;;;;;5075384;28;20259;-83
2022/06/23 10:55:56;;;;;;;1.77;1.67;;;;;;;;;;5075792;28;20200;-83
2022/06/23 10:58:49;;;;;;;1.40;1.40;;;;;;;;;;5075626;28;20652;-83
2022/06/23 11:01:37;;;;;;;1.20;1.20;;;;;;;;;;5074403;28;20644;-83
2022/06/23 11:04:35;;;;;;;1.00;1.00;;;;;;;;;;5074457;28;20251;-82
2022/06/23 11:07:29;;;;;;;0.90;0.90;;;;;;;;;;5055850;28;20445;-82
2022/06/23 11:10:24;;;;;;;1.13;1.13;;;;;;;;;;5046016;28;20472;-82
2022/06/23 11:13:06;;;;;;;0.98;0.98;;;;;;;;;;5054460;28;20289;-82
2022/06/23 11:15:40;;;;;;;1.10;1.10;;;;;;;;;;5054689;28;20711;-81
2022/06/23 11:18:24;;;;;;;2.55;1.60;;;;;;;;;;5054865;28;20208;-81
2022/06/23 11:21:12;;;;;;;2.25;1.60;;;;;;;;;;5054890;28;20224;-80
2022/06/23 11:23:45;;;;;;;1.65;1.55;;;;;;;;;;5053202;28;20249;-80
2022/06/23 11:26:25;;;;;;;2.10;2.00;;;;;;;;;;5053771;28;20201;-81
2022/06/23 11:29:13;;;;;;;2.00;1.90;;;;;;;;;;5052891;28;20235;-80
2022/06/23 11:31:52;;;;;;;1.48;1.30;;;;;;;;;;5052973;28;20239;-81
2022/06/23 11:34:46;;;;;;;1.58;1.50;;;;;;;;;;5054359;28;20308;-82
2022/06/23 11:37:31;;;;;;;1.15;1.15;;;;;;;;;;5053742;28;20279;-83
2022/06/23 11:40:34;;;;;;;1.42;1.23;;;;;;;;;;5053838;28;20201;-82
2022/06/23 11:43:30;;;;;;;1.30;1.20;;;;;;;;;;5053175;28;20625;-83
2022/06/23 11:46:12;;;;;;;1.10;1.10;;;;;;;;;;5049413;28;20209;-82
2022/06/23 11:49:16;;;;;;;1.92;1.83;;;;;;;;;;5053366;28;20209;-82
2022/06/23 11:52:03;;;;;;;2.30;1.80;;;;;;;;;;5050050;28;20287;-82
2022/06/23 11:55:15;;;;;;;1.77;1.67;;;;;;;;;;5053585;28;20663;-80
2022/06/23 11:58:14;;;;;;;1.52;1.42;;;;;;;;;;5048790;28;20247;-81
2022/06/23 12:00:57;;;;;;;1.25;1.25;;;;;;;;;;5051701;28;20240;-81
2022/06/23 12:03:50;;;;;;;1.77;1.67;;;;;;;;;;5051494;28;20228;-81
2022/06/23 12:06:29;;;;;;;1.50;1.40;;;;;;;;;;5066502;28;20296;-81
2022/06/23 12:09:02;;;;;;;1.63;1.52;;;;;;;;;;5072082;28;20219;-81
2022/06/23 12:11:35;;;;;;;1.90;1.80;;;;;;;;;;5072528;28;20299;-81
2022/06/23 12:14:07;;;;;;;2.13;1.85;;;;;;;;;;5074112;28;20235;-82
2022/06/23 12:16:42;;;;;;;6.43;1.67;;;;;;;;;;5076633;28;20202;-81
2022/06/23 12:19:18;;;;;;;1.50;1.40;;;;;;;;;;5076497;28;20204;-81
2022/06/23 12:21:53;;;;;;;1.67;1.58;;;;;;;;;;5075456;28;20204;-82
2022/06/23 12:24:26;;;;;;;1.30;1.30;;;;;;;;;;5075848;28;20306;-81
2022/06/23 12:27:05;;;;;;;1.38;1.38;;;;;;;;;;5075863;28;20287;-81
2022/06/23 12:29:38;;;;;;;1.60;1.55;;;;;;;;;;5076353;28;20231;-83
2022/06/23 12:32:15;;;;;;;1.55;1.50;;;;;;;;;;5075332;28;20261;-81
2022/06/23 12:34:49;;;;;;;1.83;1.73;;;;;;;;;;5075990;28;20259;-81
2022/06/23 12:37:23;;;;;;;1.42;1.42;;;;;;;;;;5075538;28;20579;-81
2022/06/23 12:39:58;;;;;;;1.30;1.20;;;;;;;;;;5075825;28;20294;-83
2022/06/23 12:42:38;;;;;;;1.60;1.50;;;;;;;;;;5074626;28;20206;-82
2022/06/23 12:45:43;;;;;;;1.48;1.48;;;;;;;;;;5075568;28;20220;-80
2022/06/23 12:48:44;;;;;;;1.67;1.58;;;;;;;;;;5075576;28;20429;-82
2022/06/23 12:51:21;;;;;;;1.27;1.27;;;;;;;;;;5075209;28;20634;-80
2022/06/23 12:54:12;;;;;;;1.50;1.50;;;;;;;;;;5074932;28;20224;-81
2022/06/23 12:57:16;;;;;;;1.30;1.30;;;;;;;;;;5075880;28;20200;-81
2022/06/23 12:59:47;;;;;;;1.52;1.50;;;;;;;;;;5068791;28;20739;-79
2022/06/23 13:02:26;;;;;;;1.70;1.60;;;;;;;;;;5074653;28;20295;-80
2022/06/23 13:05:01;;;;;;;1.65;1.50;;;;;;;;;;5074881;28;20255;-81
2022/06/23 13:07:35;;;;;;;1.30;1.30;;;;;;;;;;5074836;28;20231;-81
2022/06/23 13:10:11;;;;;;;1.38;1.38;;;;;;;;;;5075176;28;20231;-81
2022/06/23 13:12:46;;;;;;;1.27;1.27;;;;;;;;;;5074499;28;20232;-81
2022/06/23 13:15:18;;;;;;;1.20;1.20;;;;;;;;;;5080049;28;20319;-81
2022/06/23 13:17:54;;;;;;;1.55;1.48;;;;;;;;;;5078853;28;20236;-82
2022/06/23 13:20:28;;;;;;;2.95;1.50;;;;;;;;;;5076893;28;20667;-82
2022/06/23 13:23:03;;;;;;;1.10;1.10;;;;;;;;;;5075744;28;20323;-81
2022/06/23 13:25:34;;;;;;;1.40;1.30;;;;;;;;;;5075821;28;20303;-81
2022/06/23 13:28:15;;;;;;;1.13;1.10;;;;;;;;;;5075849;28;20227;-81
2022/06/23 13:30:48;;;;;;;2.15;1.98;;;;;;;;;;5075350;28;20207;-81
2022/06/23 13:33:25;;;;;;;2.72;2.53;;;;;;;;;;5074630;28;20652;-80
2022/06/23 13:35:59;;;;;;;1.80;1.70;;;;;;;;;;5075604;28;20584;-79
2022/06/23 13:38:40;;;;;;;1.65;1.58;;;;;;;;;;5075861;28;20257;-79
2022/06/23 13:41:16;;;;;;;1.70;1.60;;;;;;;;;;5075158;28;20207;-81
2022/06/23 13:43:52;;;;;;;1.52;1.50;;;;;;;;;;5074881;28;20587;-79
2022/06/23 13:46:27;;;;;;;1.90;1.80;;;;;;;;;;5074933;28;20711;-80
2022/06/23 13:48:59;;;;;;;1.70;1.55;;;;;;;;;;5075018;28;20228;-79
2022/06/23 13:51:34;;;;;;;1.88;1.77;;;;;;;;;;5075003;28;20284;-81
2022/06/23 13:54:08;;;;;;;1.75;1.65;;;;;;;;;;5074790;28;20255;-80
2022/06/23 13:56:40;;;;;;;1.77;1.67;;;;;;;;;;5074672;28;20209;-79
2022/06/23 13:59:12;;;;;;;1.70;1.60;;;;;;;;;;5074764;28;20603;-80
2022/06/23 14:01:44;;;;;;;1.65;1.55;;;;;;;;;;5073033;28;20232;-80
2022/06/23 14:04:19;;;;;;;1.80;1.70;;;;;;;;;;5075134;28;20255;-80
2022/06/23 14:06:49;;;;;;;1.60;1.50;;;;;;;;;;5074620;28;20282;-80
2022/06/23 14:09:22;;;;;;;1.48;1.42;;;;;;;;;;5074061;28;20211;-79
2022/06/23 14:11:56;;;;;;;1.88;1.58;;;;;;;;;;5073482;28;20207;-80
2022/06/23 14:14:29;;;;;;;2.08;1.98;;;;;;;;;;5073415;28;20252;-80
2022/06/23 14:17:06;;;;;;;1.98;1.88;;;;;;;;;;5073771;28;20548;-79
2022/06/23 14:19:41;;;;;;;1.75;1.65;;;;;;;;;;5074328;28;20203;-80
2022/06/23 14:22:16;;;;;;;1.67;1.58;;;;;;;;;;5073411;28;20291;-80
2022/06/23 14:24:51;;;;;;;1.30;1.30;;;;;;;;;;5073375;28;20307;-79
2022/06/23 14:27:25;;;;;;;2.08;1.98;;;;;;;;;;5073974;28;20295;-80
2022/06/23 14:29:57;;;;;;;1.80;1.70;;;;;;;;;;5073639;28;20201;-78
2022/06/23 14:32:30;;;;;;;2.05;1.90;;;;;;;;;;5072534;28;20730;-79
2022/06/23 14:35:06;;;;;;;2.00;1.90;;;;;;;;;;5072981;28;20707;-79
2022/06/23 14:37:41;;;;;;;1.63;1.52;;;;;;;;;;5072841;28;20279;-78
2022/06/23 14:40:16;;;;;;;1.40;1.40;;;;;;;;;;5073541;28;20224;-79
2022/06/23 14:43:02;;;;;;;1.42;1.42;;;;;;;;;;5072203;28;20235;-79
2022/06/23 14:46:03;;;;;;;1.60;1.50;;;;;;;;;;5073690;28;20628;-78
2022/06/23 14:49:16;;;;;;;1.70;1.60;;;;;;;;;;5073419;28;20199;-79
2022/06/23 14:51:48;;;;;;;1.88;1.77;;;;;;;;;;5072422;28;20846;-78
2022/06/23 14:54:22;;;;;;;2.10;2.00;;;;;;;;;;5073040;28;20643;-79
2022/06/23 14:56:58;;;;;;;2.05;1.85;;;;;;;;;;5073092;28;20200;-78
2022/06/23 14:59:29;;;;;;;2.08;1.98;;;;;;;;;;5076034;28;20248;-78
2022/06/23 15:02:20;;;;;;;1.98;1.88;;;;;;;;;;5074432;28;20243;-79
2022/06/23 15:04:55;;;;;;;1.90;1.80;;;;;;;;;;5076142;28;20736;-79
2022/06/23 15:07:27;;;;;;;2.08;1.88;;;;;;;;;;5073895;28;20226;-78
2022/06/23 15:10:00;;;;;;;2.22;2.13;;;;;;;;;;5073786;28;20200;-79
2022/06/23 15:12:40;;;;;;;2.45;2.28;;;;;;;;;;5072293;28;20204;-79
2022/06/23 15:15:15;;;;;;;1.83;1.73;;;;;;;;;;5073621;28;20227;-79
2022/06/23 15:17:55;;;;;;;1.83;1.73;;;;;;;;;;5073782;28;20265;-78
2022/06/23 15:20:33;;;;;;;1.70;1.60;;;;;;;;;;5073847;28;20200;-79
2022/06/23 15:23:14;;;;;;;1.60;1.50;;;;;;;;;;5071514;28;20296;-79
2022/06/23 15:25:59;;;;;;;1.50;1.40;;;;;;;;;;5074003;28;20287;-79
2022/06/23 15:28:35;;;;;;;1.60;1.50;;;;;;;;;;5074253;28;20719;-79
2022/06/23 15:31:11;;;;;;;1.85;1.75;;;;;;;;;;5073827;28;20200;-78
2022/06/23 15:33:48;;;;;;;1.83;1.73;;;;;;;;;;5073637;28;20266;-78
2022/06/23 15:36:30;;;;;;;1.60;1.50;;;;;;;;;;5073410;28;20235;-79
2022/06/23 15:39:02;;;;;;;1.70;1.63;;;;;;;;;;5073192;28;20630;-78
2022/06/23 15:41:43;;;;;;;1.60;1.50;;;;;;;;;;5074135;28;20251;-79
2022/06/23 15:44:22;;;;;;;1.90;1.80;;;;;;;;;;5073462;28;20248;-78
2022/06/23 15:46:57;;;;;;;1.90;1.80;;;;;;;;;;5074485;28;20291;-78
2022/06/23 15:49:33;;;;;;;1.98;1.88;;;;;;;;;;5073006;28;20235;-79
2022/06/23 15:52:06;;;;;;;1.40;1.38;;;;;;;;;;5072288;28;20241;-79
2022/06/23 15:54:40;;;;;;;2.00;1.90;;;;;;;;;;5072811;28;20628;-78